Flight Track Log - Related Links

Times and Time Zones

All times are in EDT time to prevent confusion due to time zone crossing. See the FIN666 flight status page for this flight to view local times or setup timezone preferences in your user account.

Time Position Orientation Groundspeed Altitude Reporting Facility
EDT Latitude Longitude Course Direction KTS MPH feet Rate Location/Type
Mon 08:35:00 AM 55.8420 13.1192 49° Northeast  Level Estimated
Mon 08:36:00 AM 55.9164 13.2747 50° Northeast  Level Estimated
Mon 08:37:00 AM 55.9905 13.4309 50° Northeast  Level Estimated
Mon 08:38:00 AM 56.0666 13.5923 50° Northeast  Level Estimated
Mon 08:39:00 AM 56.1425 13.7544 50° Northeast  Level Estimated
Mon 08:40:00 AM 56.2181 13.9170 50° Northeast  Level Estimated
Mon 08:41:00 AM 56.2936 14.0803 50° Northeast  Level Estimated
Mon 08:42:00 AM 56.3688 14.2443 50° Northeast  Level Estimated
Mon 08:43:00 AM 56.4439 14.4089 50° Northeast  Level Estimated
Mon 08:44:00 AM 56.5187 14.5742 51° Northeast  Level Estimated
Mon 08:45:00 AM 56.5933 14.7401 51° Northeast  Level Estimated
Mon 08:46:00 AM 56.6676 14.9067 51° Northeast  Level Estimated
Mon 08:47:00 AM 56.7417 15.0739 51° Northeast  Level Estimated
Mon 08:48:00 AM 56.8157 15.2418 51° Northeast  Level Estimated
Mon 08:49:00 AM 56.8894 15.4103 51° Northeast  Level Estimated
Mon 08:50:00 AM 56.9628 15.5795 51° Northeast  Level Estimated
Mon 08:51:00 AM 57.0360 15.7494 52° Northeast  Level Estimated
Mon 08:52:00 AM 57.1091 15.9200 52° Northeast  Level Estimated
Mon 08:53:00 AM 57.1818 16.0912 52° Northeast  Level Estimated
Mon 08:54:00 AM 57.2543 16.2631 52° Northeast  Level Estimated
Mon 08:55:00 AM 57.3266 16.4357 52° Northeast  Level Estimated
Mon 08:56:00 AM 57.3987 16.6089 52° Northeast  Level Estimated
Mon 08:57:00 AM 57.4705 16.7829 52° Northeast  Level Estimated
Mon 08:58:00 AM 57.5421 16.9575 53° Northeast  Level Estimated
Mon 08:59:00 AM 57.6135 17.1328 53° Northeast  Level Estimated
Mon 09:00:00 AM 57.6846 17.3088 53° Northeast  Level Estimated
Mon 09:01:00 AM 57.7554 17.4855 53° Northeast  Level Estimated
Mon 09:02:00 AM 57.8260 17.6629 53° Northeast  Level Estimated
Mon 09:03:00 AM 57.8964 17.8410 53° Northeast  Level Estimated
Mon 09:04:00 AM 57.9665 18.0197 53° Northeast  Level Estimated
Mon 09:05:00 AM 58.0363 18.1992 54° Northeast  Level Estimated
Mon 09:06:00 AM 58.1059 18.3794 54° Northeast  Level Estimated
Mon 09:07:00 AM 58.1753 18.5602 54° Northeast  Level Estimated
Mon 09:08:00 AM 58.2444 18.7418 54° Northeast  Level Estimated
Mon 09:09:00 AM 58.3132 18.9241 54° Northeast  Level Estimated
Mon 09:10:00 AM 58.3818 19.1071 54° Northeast  Level Estimated
Mon 09:11:00 AM 58.4501 19.2908 55° Northeast  Level Estimated
Mon 09:12:00 AM 58.5181 19.4753 55° Northeast  Level Estimated
Mon 09:13:00 AM 58.5859 19.6604 55° Northeast  Level Estimated
Mon 09:14:00 AM 58.6534 19.8463 55° Northeast  Level Estimated
Mon 09:15:00 AM 58.7207 20.0328 55° Northeast  Level Estimated
Mon 09:16:00 AM 58.7876 20.2201 55° Northeast  Level Estimated
Mon 09:17:00 AM 58.8543 20.4081 55° Northeast  Level Estimated
Mon 09:18:00 AM 58.9208 20.5969 56° Northeast  Level Estimated
Mon 09:19:00 AM 58.9869 20.7864 56° Northeast  Level Estimated
Mon 09:20:00 AM 59.0528 20.9765 56° Northeast  Level Estimated
Mon 09:21:00 AM 59.1184 21.1675 56° Northeast  Level Estimated
Mon 09:22:00 AM 59.1837 21.3591 56° Northeast  Level Estimated
Mon 09:23:00 AM 59.2487 21.5515 56° Northeast  Level Estimated
Mon 09:24:00 AM 59.3135 21.7446 57° Northeast  Level Estimated
Mon 09:25:00 AM 59.3779 21.9385 57° Northeast  Level Estimated
Mon 09:26:00 AM 59.4421 22.1331 57° Northeast  Level Estimated
Mon 09:27:00 AM 59.5060 22.3284 57° Northeast  Level Estimated
Mon 09:28:00 AM 59.5696 22.5245 57° Northeast  Level Estimated
Mon 09:29:00 AM 59.6329 22.7213 57° Northeast  Level Estimated
Mon 09:30:00 AM 59.6959 22.9189 58° Northeast  Level Estimated
Mon 09:31:00 AM 59.7585 23.1172 58° Northeast  Level Estimated
Mon 09:32:00 AM 59.8209 23.3162 58° Northeast  Level Estimated
Mon 09:33:00 AM 59.8830 23.5160 58° Northeast  Level Estimated
Mon 09:34:00 AM 59.9448 23.7165 58° Northeast  Level Estimated
Mon 09:35:00 AM 60.0063 23.9178 59° Northeast  Level Estimated
Mon 09:36:00 AM 60.0675 24.1198 59° Northeast  Level Estimated
Mon 09:37:00 AM 60.1284 24.3226 59° Northeast  Level Estimated
Mon 09:38:00 AM 60.1889 24.5261 59° Northeast  Level Estimated
Mon 09:39:00 AM 60.2492 24.7304 59° Northeast  Level Estimated
Mon 09:40:00 AM 60.3091 24.9354 59° Northeast  Level Estimated
Mon 09:41:00 AM 60.3172 24.9633 60° Northeast  Level Estimated
Mon 09:42:00 AM 60.3172 24.9633 North  Level Estimated
Mon 09:43:00 AM 60.3172 24.9633 North  Level Estimated
Mon 09:44:00 AM 60.3172 24.9633 North  Level Estimated
Mon 09:45:00 AM 60.3172 24.9633 North  Level Estimated
Mon 09:46:00 AM 60.3172 24.9633 North  Level Estimated
Mon 09:47:00 AM 60.3172 24.9633 North  Level Estimated
Mon 09:48:00 AM 60.3172 24.9633 North  Level Estimated
Mon 09:49:00 AM 60.3172 24.9633 North  Level Estimated
Mon 09:50:00 AM 60.3172 24.9633 North  Level Estimated
Mon 09:51:00 AM 60.3172 24.9633 North  Level Estimated
Mon 09:52:00 AM 60.3172 24.9633 North  Level Estimated

Login

Don't have an account? Register now (free) for customized features, flight alerts, and more!